Time;durP1;ratioP1;P1;durP2;ratioP2;P2;SDS_P1;SDS_P2;PMS_P1;PMS_P2;Temp;Humidity;BMP_temperature;BMP_pressure;BME280_temperature;BME280_humidity;BME280_pressure;Samples;Min_cycle;Max_cycle;Signal;HPM_P1;HPM_P2
2022/11/20 00:02:44;;;;;;;22.17;13.47;;;-0.50;99.90;;;;;;10412293;28;20230;-83
2022/11/20 00:07:46;;;;;;;23.63;14.37;;;-0.70;99.90;;;;;;10417380;28;20606;-82
2022/11/20 00:12:49;;;;;;;26.93;13.80;;;-0.80;99.90;;;;;;10414069;28;20713;-83
2022/11/20 00:17:51;;;;;;;28.27;14.57;;;-0.90;99.90;;;;;;10407904;28;20627;-82
2022/11/20 00:22:53;;;;;;;25.87;14.20;;;-1.00;99.90;;;;;;10410891;28;20289;-82
2022/11/20 00:27:56;;;;;;;23.40;13.93;;;-1.00;99.90;;;;;;10408947;28;20629;-84
2022/11/20 00:32:59;;;;;;;27.13;14.30;;;-1.10;99.90;;;;;;10411228;28;20247;-83
2022/11/20 00:38:01;;;;;;;29.50;13.00;;;-1.10;99.90;;;;;;10410978;28;20192;-83
2022/11/20 00:43:04;;;;;;;26.20;14.57;;;-1.10;99.90;;;;;;10410777;28;20638;-84
2022/11/20 00:48:06;;;;;;;23.83;14.50;;;-1.20;99.90;;;;;;10412114;28;20203;-83
2022/11/20 00:53:08;;;;;;;29.10;15.30;;;-1.20;99.90;;;;;;10410549;28;20326;-83
2022/11/20 00:58:11;;;;;;;28.17;16.40;;;-1.30;99.90;;;;;;10409380;28;20554;-84
2022/11/20 01:03:17;;;;;;;30.13;15.77;;;-1.30;99.90;;;;;;10410696;28;20208;-83
2022/11/20 01:08:33;;;;;;;15.83;10.37;;;-1.30;99.90;;;;;;10410377;28;20216;-83
2022/11/20 01:13:39;;;;;;;19.13;11.53;;;-1.20;99.90;;;;;;10381425;28;20678;-83
2022/11/20 01:18:44;;;;;;;21.17;12.63;;;-1.30;99.90;;;;;;10401708;28;20208;-83
2022/11/20 01:23:48;;;;;;;28.63;15.70;;;-1.20;99.90;;;;;;10411491;28;20199;-83
2022/11/20 01:28:50;;;;;;;25.13;13.87;;;-1.20;99.90;;;;;;10411073;28;20231;-84
2022/11/20 01:33:56;;;;;;;24.00;14.77;;;-1.30;99.90;;;;;;10408662;28;20255;-83
2022/11/20 01:39:01;;;;;;;29.47;15.10;;;-1.30;99.90;;;;;;10405272;28;20203;-83
2022/11/20 01:44:04;;;;;;;28.47;16.23;;;-1.40;99.90;;;;;;10410389;28;20742;-83
2022/11/20 01:49:16;;;;;;;27.30;15.33;;;-1.40;99.90;;;;;;10409207;28;20207;-83
2022/11/20 01:54:27;;;;;;;23.93;14.63;;;-1.40;99.90;;;;;;10408174;28;20317;-83
2022/11/20 01:59:30;;;;;;;23.57;14.00;;;-1.30;99.90;;;;;;10408157;28;20226;-83
2022/11/20 02:04:33;;;;;;;19.97;13.17;;;-1.30;99.90;;;;;;10408969;28;20199;-83
2022/11/20 02:09:36;;;;;;;29.53;16.07;;;-1.30;99.90;;;;;;10409432;28;20231;-83
2022/11/20 02:14:38;;;;;;;30.93;15.67;;;-1.30;99.90;;;;;;10381863;28;20330;-83
2022/11/20 02:19:41;;;;;;;25.93;13.33;;;-1.30;99.90;;;;;;10379612;28;20195;-83
2022/11/20 02:24:46;;;;;;;27.20;16.17;;;-1.30;99.90;;;;;;10408080;28;20688;-83
2022/11/20 02:30:02;;;;;;;25.43;14.20;;;-1.40;99.90;;;;;;10406509;28;20235;-83
2022/11/20 02:35:30;;;;;;;21.57;13.80;;;-1.40;99.90;;;;;;10408272;28;20258;-83
2022/11/20 02:40:33;;;;;;;29.43;15.60;;;-1.40;99.90;;;;;;10406998;28;20692;-83
2022/11/20 02:45:36;;;;;;;22.80;13.67;;;-1.30;99.90;;;;;;10408317;28;20424;-83
2022/11/20 02:50:39;;;;;;;28.47;15.17;;;-1.30;99.90;;;;;;10406701;28;20557;-83
2022/11/20 02:55:42;;;;;;;23.03;14.07;;;-1.30;99.90;;;;;;10408596;28;20269;-83
2022/11/20 03:00:44;;;;;;;25.67;13.80;;;-1.30;99.90;;;;;;10407030;28;20669;-83
2022/11/20 03:05:47;;;;;;;23.30;12.20;;;-1.30;99.90;;;;;;10403534;28;20188;-83
2022/11/20 03:10:49;;;;;;;20.50;12.60;;;-1.20;99.90;;;;;;10366257;28;20232;-83
2022/11/20 03:15:52;;;;;;;21.83;13.77;;;-1.20;99.90;;;;;;10400293;28;20302;-83
2022/11/20 03:20:58;;;;;;;23.10;12.77;;;-1.20;99.90;;;;;;10411365;28;20223;-83
2022/11/20 03:26:12;;;;;;;20.77;12.20;;;-1.20;99.90;;;;;;10414458;28;20269;-83
2022/11/20 03:31:18;;;;;;;27.73;14.63;;;-1.20;99.90;;;;;;10414092;28;20232;-83
2022/11/20 03:36:20;;;;;;;23.40;14.70;;;-1.20;99.90;;;;;;10413877;28;20256;-83
2022/11/20 03:41:29;;;;;;;25.67;15.40;;;-1.20;99.90;;;;;;10413048;28;20215;-83
2022/11/20 03:46:32;;;;;;;25.37;16.27;;;-1.20;99.90;;;;;;10413169;28;20223;-83
2022/11/20 03:51:35;;;;;;;25.70;16.03;;;-1.20;99.90;;;;;;10413280;28;20195;-83
2022/11/20 03:56:39;;;;;;;28.37;15.97;;;-1.20;99.90;;;;;;10400711;28;20305;-83
2022/11/20 04:01:41;;;;;;;23.43;14.53;;;-1.20;99.90;;;;;;10412284;28;20203;-83
2022/11/20 04:06:50;;;;;;;23.50;14.20;;;-1.20;99.90;;;;;;10396728;28;20289;-83
2022/11/20 04:11:52;;;;;;;23.50;15.33;;;-1.20;99.90;;;;;;10411233;28;20243;-83
2022/11/20 04:16:55;;;;;;;33.20;17.10;;;-1.20;99.90;;;;;;10395671;28;20258;-83
2022/11/20 04:21:57;;;;;;;30.27;16.50;;;-1.20;99.90;;;;;;10411831;28;20938;-82
2022/11/20 04:27:00;;;;;;;32.57;18.67;;;-1.20;99.90;;;;;;10404595;28;20308;-84
2022/11/20 04:32:02;;;;;;;32.57;16.43;;;-1.20;99.90;;;;;;10386418;28;20239;-83
2022/11/20 04:37:05;;;;;;;25.50;14.87;;;-1.20;99.90;;;;;;10371590;28;20673;-84
2022/11/20 04:47:30;;;;;;;29.13;16.70;;;-1.20;99.90;;;;;;10384613;28;20681;-84
2022/11/20 04:52:32;;;;;;;27.97;16.60;;;-1.20;99.90;;;;;;10409201;28;20241;-84
2022/11/20 04:57:35;;;;;;;29.70;16.83;;;-1.20;99.90;;;;;;10410296;28;20317;-83
2022/11/20 05:02:37;;;;;;;25.50;15.13;;;-1.20;99.90;;;;;;10411079;28;20227;-83
2022/11/20 05:07:40;;;;;;;24.70;14.57;;;-1.20;99.90;;;;;;10410212;28;20231;-83
2022/11/20 05:12:42;;;;;;;30.73;15.80;;;-1.20;99.90;;;;;;10409207;28;20576;-84
2022/11/20 05:17:49;;;;;;;28.70;16.07;;;-1.20;99.90;;;;;;10409653;28;20293;-84
2022/11/20 05:22:52;;;;;;;23.20;14.80;;;-1.20;99.90;;;;;;10410438;28;20250;-83
2022/11/20 05:27:54;;;;;;;28.60;16.90;;;-1.20;99.90;;;;;;10410379;28;20240;-84
2022/11/20 05:32:56;;;;;;;46.90;23.20;;;-1.20;99.90;;;;;;10409288;28;20263;-83
2022/11/20 05:37:59;;;;;;;38.57;21.80;;;-1.20;99.90;;;;;;10408240;28;20319;-84
2022/11/20 05:43:01;;;;;;;30.63;17.17;;;-1.20;99.90;;;;;;10409416;28;20230;-84
2022/11/20 05:48:04;;;;;;;26.60;15.60;;;-1.20;99.90;;;;;;10407648;28;20225;-84
2022/11/20 05:53:07;;;;;;;27.87;16.33;;;-1.30;99.90;;;;;;10367983;28;20208;-84
2022/11/20 05:58:09;;;;;;;32.50;17.47;;;-1.30;99.90;;;;;;10382549;28;20297;-84
2022/11/20 06:03:12;;;;;;;30.77;16.37;;;-1.30;99.90;;;;;;10409587;28;20222;-84
2022/11/20 06:08:14;;;;;;;34.00;18.17;;;-1.40;99.90;;;;;;10410185;28;20204;-84
2022/11/20 06:13:16;;;;;;;30.20;16.87;;;-1.40;99.90;;;;;;10408384;28;20212;-84
2022/11/20 06:18:20;;;;;;;32.47;19.10;;;-1.40;99.90;;;;;;10407777;28;20267;-84
2022/11/20 06:23:22;;;;;;;44.40;20.60;;;-1.40;99.90;;;;;;10407282;28;20281;-84
2022/11/20 06:28:25;;;;;;;40.13;22.20;;;-1.40;99.90;;;;;;10408448;28;20200;-84
2022/11/20 06:33:28;;;;;;;36.60;20.10;;;-1.40;99.90;;;;;;10406615;28;20935;-84
2022/11/20 06:38:30;;;;;;;34.43;19.47;;;-1.40;99.90;;;;;;10366804;28;20199;-84
2022/11/20 06:43:33;;;;;;;35.17;19.87;;;-1.40;99.90;;;;;;10366695;28;20204;-84
2022/11/20 06:48:35;;;;;;;35.27;19.13;;;-1.40;99.90;;;;;;10387019;28;20195;-84
2022/11/20 06:53:38;;;;;;;37.50;20.67;;;-1.40;99.90;;;;;;10401864;28;20200;-84
2022/11/20 06:58:40;;;;;;;37.20;21.67;;;-1.40;99.90;;;;;;10391384;28;20244;-84
2022/11/20 07:03:43;;;;;;;35.17;21.40;;;-1.30;99.90;;;;;;10399101;28;20231;-84
2022/11/20 07:08:46;;;;;;;40.87;21.37;;;-1.40;99.90;;;;;;10415515;28;20231;-84
2022/11/20 07:13:49;;;;;;;37.23;21.60;;;-1.30;99.90;;;;;;10414810;28;20235;-84
2022/11/20 07:18:52;;;;;;;43.77;21.80;;;-1.30;99.90;;;;;;10414501;28;20258;-84
2022/11/20 07:23:54;;;;;;;43.33;22.73;;;-1.30;99.90;;;;;;10373741;28;20208;-84
2022/11/20 07:28:57;;;;;;;53.73;25.07;;;-1.20;99.90;;;;;;10374801;28;20255;-84
2022/11/20 07:33:59;;;;;;;48.90;24.90;;;-1.20;99.90;;;;;;10401645;28;20302;-84
2022/11/20 07:39:02;;;;;;;46.80;25.07;;;-1.10;99.90;;;;;;10413567;28;20207;-84
2022/11/20 07:44:05;;;;;;;50.33;25.27;;;-1.00;99.90;;;;;;10415102;28;20204;-84
2022/11/20 07:49:07;;;;;;;49.97;24.33;;;-1.00;99.90;;;;;;10400737;28;20626;-84
2022/11/20 07:54:09;;;;;;;45.77;23.30;;;-1.00;99.90;;;;;;10428695;28;20712;-84
2022/11/20 07:59:12;;;;;;;46.63;23.77;;;-0.90;99.90;;;;;;10412988;28;20622;-84
2022/11/20 08:04:16;;;;;;;44.67;23.83;;;-0.90;99.90;;;;;;10411257;28;20238;-84
2022/11/20 08:09:18;;;;;;;45.10;24.20;;;-0.70;99.90;;;;;;10413684;28;20236;-84
2022/11/20 08:14:21;;;;;;;47.17;23.83;;;-0.70;99.90;;;;;;10410989;28;20320;-84
2022/11/20 08:19:24;;;;;;;51.63;26.63;;;-0.60;99.90;;;;;;10411834;28;20250;-84
2022/11/20 08:24:26;;;;;;;46.03;25.30;;;-0.50;99.90;;;;;;10382120;28;20270;-84
2022/11/20 08:29:29;;;;;;;43.33;23.33;;;-0.40;99.90;;;;;;10407367;28;20737;-84
2022/11/20 08:34:32;;;;;;;45.70;23.70;;;-0.40;99.90;;;;;;10428156;28;20341;-84
2022/11/20 08:39:34;;;;;;;48.83;26.97;;;-0.40;99.90;;;;;;10411280;28;20699;-84
2022/11/20 08:44:37;;;;;;;43.87;25.47;;;-0.40;99.90;;;;;;10410027;28;20311;-83
2022/11/20 08:49:40;;;;;;;47.27;24.43;;;-0.40;99.90;;;;;;10418790;28;20256;-84
2022/11/20 08:54:42;;;;;;;47.43;24.63;;;-0.50;99.90;;;;;;10428231;28;20813;-83
2022/11/20 08:59:44;;;;;;;37.40;21.60;;;-0.50;99.90;;;;;;10429046;28;20271;-84
2022/11/20 09:05:08;;;;;;;45.60;23.77;;;-0.40;99.90;;;;;;10420450;28;20634;-83
2022/11/20 09:10:11;;;;;;;40.53;23.50;;;-0.30;99.90;;;;;;10438488;28;20753;-83
2022/11/20 09:15:28;;;;;;;37.70;21.93;;;-0.20;99.90;;;;;;10425645;28;20258;-83
2022/11/20 09:20:31;;;;;;;44.17;21.13;;;-0.10;99.90;;;;;;10424100;28;20226;-83
2022/11/20 09:25:34;;;;;;;41.50;24.10;;;0.00;99.90;;;;;;10428313;28;20285;-83
2022/11/20 09:30:36;;;;;;;42.67;23.97;;;0.10;99.90;;;;;;10428746;28;20288;-83
2022/11/20 09:35:39;;;;;;;46.63;24.63;;;0.10;99.90;;;;;;10428771;28;20266;-83
2022/11/20 09:40:51;;;;;;;44.17;23.90;;;0.20;99.90;;;;;;10416928;28;20285;-83
2022/11/20 09:46:31;;;;;;;47.60;25.63;;;0.20;99.90;;;;;;10408454;28;20632;-83
2022/11/20 09:51:42;;;;;;;44.03;22.93;;;0.50;99.90;;;;;;10409055;28;20239;-83
2022/11/20 09:56:53;;;;;;;44.87;23.40;;;0.50;99.90;;;;;;10408437;28;20714;-83
2022/11/20 10:01:57;;;;;;;47.03;24.57;;;0.50;99.90;;;;;;10389489;28;20688;-82
2022/11/20 10:07:22;;;;;;;48.60;25.33;;;0.60;99.90;;;;;;10408779;28;20270;-83
2022/11/20 10:13:15;;;;;;;49.67;25.93;;;0.80;99.90;;;;;;10406103;28;20664;-83
2022/11/20 10:18:23;;;;;;;54.83;29.60;;;1.00;99.90;;;;;;10407353;28;20254;-83
2022/11/20 10:23:50;;;;;;;49.77;26.20;;;1.10;99.90;;;;;;10408191;28;20990;-83
2022/11/20 10:29:15;;;;;;;46.77;25.73;;;1.20;99.90;;;;;;10407287;28;20205;-84
2022/11/20 10:34:22;;;;;;;56.97;29.37;;;1.30;99.90;;;;;;10392455;28;20337;-83
2022/11/20 10:39:43;;;;;;;52.87;28.93;;;1.40;99.90;;;;;;10395066;28;20239;-83
2022/11/20 10:45:00;;;;;;;52.73;27.30;;;1.50;99.90;;;;;;10399052;28;20228;-83
2022/11/20 10:50:14;;;;;;;53.47;27.63;;;1.60;99.90;;;;;;10366570;28;20205;-83
2022/11/20 10:55:48;;;;;;;58.07;30.40;;;1.80;99.90;;;;;;10390546;28;20252;-83
2022/11/20 11:00:50;;;;;;;47.93;25.83;;;2.10;99.90;;;;;;10408204;28;20205;-84
2022/11/20 11:06:12;;;;;;;66.30;31.00;;;2.20;99.90;;;;;;10406702;28;20298;-84
2022/11/20 11:11:30;;;;;;;49.47;26.37;;;2.20;99.90;;;;;;10407749;28;20262;-83
2022/11/20 11:16:33;;;;;;;43.97;24.70;;;2.00;99.90;;;;;;10406921;28;20251;-83
2022/11/20 11:21:41;;;;;;;48.60;26.60;;;1.80;99.90;;;;;;10408082;28;20656;-83
2022/11/20 11:26:58;;;;;;;43.47;24.90;;;1.70;99.90;;;;;;10407471;28;20293;-83
2022/11/20 11:32:21;;;;;;;50.77;27.10;;;1.70;99.90;;;;;;10404330;28;20267;-83
2022/11/20 11:37:26;;;;;;;52.13;30.53;;;1.40;99.90;;;;;;10405463;28;20255;-82
2022/11/20 11:42:30;;;;;;;55.73;29.90;;;1.20;99.90;;;;;;10410305;28;20630;-82
2022/11/20 11:47:35;;;;;;;24.57;13.77;;;0.90;99.90;;;;;;10414527;28;20239;-82
2022/11/20 11:52:50;;;;;;;39.70;22.27;;;1.10;99.90;;;;;;10412208;28;20235;-82
2022/11/20 11:58:19;;;;;;;60.47;34.20;;;1.70;99.90;;;;;;10412136;28;20275;-84
2022/11/20 12:03:32;;;;;;;65.13;32.17;;;1.10;99.90;;;;;;10415807;28;20276;-83
2022/11/20 12:08:57;;;;;;;36.23;19.77;;;0.80;99.90;;;;;;10413262;28;20268;-84
2022/11/20 12:14:34;;;;;;;55.10;34.20;;;2.10;99.90;;;;;;10413907;28;20667;-85
2022/11/20 12:19:37;;;;;;;54.07;33.00;;;1.40;99.90;;;;;;10367296;28;20272;-85
2022/11/20 12:25:16;;;;;;;60.97;33.70;;;0.90;99.90;;;;;;10367811;28;20308;-85
2022/11/20 12:30:20;;;;;;;58.80;28.67;;;0.70;99.90;;;;;;10350566;28;20236;-85
2022/11/20 12:35:57;;;;;;;57.97;32.27;;;0.70;99.90;;;;;;10333630;28;20256;-85
2022/11/20 12:41:03;;;;;;;58.47;33.07;;;0.60;99.90;;;;;;10342047;28;20275;-85
2022/11/20 12:46:13;;;;;;;45.93;29.80;;;0.90;99.90;;;;;;10349481;28;20310;-84
2022/11/20 12:51:50;;;;;;;54.30;28.47;;;0.70;99.90;;;;;;10361750;28;20239;-84
2022/11/20 12:57:02;;;;;;;64.15;39.75;;;0.60;99.90;;;;;;10411038;28;20678;-85
2022/11/20 13:02:40;;;;;;;72.33;38.17;;;0.60;99.90;;;;;;10411670;28;20200;-85
2022/11/20 13:07:43;;;;;;;57.63;32.13;;;0.50;99.90;;;;;;10410792;28;20281;-84
2022/11/20 13:13:03;;;;;;;61.70;31.47;;;0.50;99.90;;;;;;10412001;28;20203;-86
2022/11/20 13:18:10;;;;;;;59.37;33.13;;;0.50;99.90;;;;;;10428242;28;20258;-85
2022/11/20 13:23:27;;;;;;;53.40;29.83;;;0.50;99.90;;;;;;10409233;28;20200;-83
2022/11/20 13:28:30;;;;;;;60.53;33.90;;;0.40;99.90;;;;;;10409994;28;20207;-83
2022/11/20 13:33:39;;;;;;;58.63;32.83;;;0.20;99.90;;;;;;10408524;28;20267;-82
2022/11/20 13:38:53;;;;;;;64.23;32.73;;;0.20;99.90;;;;;;10428567;28;20254;-82
2022/11/20 13:44:23;;;;;;;72.83;34.07;;;0.20;99.90;;;;;;10429782;28;20239;-84
2022/11/20 13:49:48;;;;;;;79.10;38.50;;;0.30;99.90;;;;;;10429456;28;20247;-84
2022/11/20 13:54:59;;;;;;;71.60;40.13;;;0.30;99.90;;;;;;10428826;28;20230;-84
2022/11/20 14:00:21;;;;;;;61.17;33.37;;;0.20;99.90;;;;;;10407288;28;20223;-84
2022/11/20 14:05:23;;;;;;;64.33;34.27;;;0.10;99.90;;;;;;10073865;28;10000515;-83
2022/11/20 14:10:28;;;;;;;57.23;27.63;;;0.10;99.90;;;;;;10421179;28;20281;-84
2022/11/20 14:15:34;;;;;;;64.47;32.87;;;0.00;99.90;;;;;;10423227;28;20661;-85
2022/11/20 14:20:43;;;;;;;69.37;36.20;;;0.50;99.90;;;;;;10406785;28;20644;-84
2022/11/20 14:25:45;;;;;;;60.40;36.10;;;0.10;99.90;;;;;;10425550;28;20235;-84
2022/11/20 14:30:49;;;;;;;69.80;37.27;;;0.00;99.90;;;;;;10421553;28;20236;-85
2022/11/20 14:35:54;;;;;;;66.73;35.30;;;-0.10;99.90;;;;;;10425807;28;20267;-85
2022/11/20 14:41:19;;;;;;;64.60;36.47;;;-0.20;99.90;;;;;;10417945;28;20806;-84
2022/11/20 14:46:23;;;;;;;61.40;35.73;;;-0.30;99.90;;;;;;10406889;28;20239;-85
2022/11/20 14:51:41;;;;;;;56.60;29.80;;;-0.40;99.90;;;;;;10424227;28;20222;-84
2022/11/20 14:57:01;;;;;;;60.90;33.13;;;-0.40;99.90;;;;;;10427321;28;20231;-85
2022/11/20 15:02:10;;;;;;;69.63;37.50;;;-0.50;99.90;;;;;;10424754;28;20235;-85
2022/11/20 15:07:34;;;;;;;73.23;37.00;;;-0.50;99.90;;;;;;10420087;28;20698;-85
2022/11/20 15:13:01;;;;;;;70.60;36.27;;;-0.60;99.90;;;;;;10415835;28;20320;-84
2022/11/20 15:18:04;;;;;;;91.40;44.53;;;-0.70;99.90;;;;;;10429229;28;20297;-86
2022/11/20 15:23:15;;;;;;;95.30;45.13;;;-0.60;99.90;;;;;;10436082;28;20215;-85
2022/11/20 15:28:27;;;;;;;87.23;43.90;;;-0.60;99.90;;;;;;10420894;28;20290;-85
2022/11/20 15:33:31;;;;;;;86.23;45.10;;;-0.60;99.90;;;;;;10417724;28;20254;-86
2022/11/20 15:38:33;;;;;;;76.53;38.07;;;-0.60;99.90;;;;;;10431898;28;20705;-84
2022/11/20 15:43:36;;;;;;;81.33;44.30;;;-0.60;99.90;;;;;;10427711;28;20265;-85
2022/11/20 15:48:50;;;;;;;91.20;46.47;;;-0.70;99.90;;;;;;10431074;28;20958;-85
2022/11/20 15:53:54;;;;;;;87.80;46.40;;;-0.70;99.90;;;;;;10431259;28;20238;-85
2022/11/20 15:58:57;;;;;;;93.33;45.43;;;-0.80;99.90;;;;;;10413609;28;20263;-85
2022/11/20 16:04:00;;;;;;;101.77;48.30;;;-0.80;99.90;;;;;;10419093;28;20231;-85
2022/11/20 16:09:03;;;;;;;96.90;46.93;;;-0.80;99.90;;;;;;10409610;28;20239;-84
2022/11/20 16:19:30;;;;;;;105.97;54.23;;;-0.90;99.90;;;;;;10408343;28;20258;-85
2022/11/20 16:24:33;;;;;;;111.83;55.13;;;-0.90;99.90;;;;;;10424910;28;20239;-84
2022/11/20 16:29:36;;;;;;;108.67;56.87;;;-0.90;99.90;;;;;;10407022;28;20726;-85
2022/11/20 16:34:39;;;;;;;125.13;61.23;;;-0.90;99.90;;;;;;10407591;28;20266;-85
2022/11/20 16:39:41;;;;;;;149.00;70.90;;;-1.00;99.90;;;;;;10409506;28;20247;-85
2022/11/20 16:44:46;;;;;;;144.37;73.87;;;-1.00;99.90;;;;;;10433776;28;20234;-85
2022/11/20 16:49:48;;;;;;;189.07;91.83;;;-1.00;99.90;;;;;;10413172;28;20291;-85
2022/11/20 16:54:51;;;;;;;163.27;80.83;;;-0.90;99.90;;;;;;10411107;28;20763;-85
2022/11/20 16:59:53;;;;;;;134.73;64.40;;;-0.90;99.90;;;;;;10411501;28;20846;-86
2022/11/20 17:05:03;;;;;;;123.33;59.37;;;-0.80;99.90;;;;;;10404003;28;20236;-86
2022/11/20 17:10:06;;;;;;;117.00;56.43;;;-0.90;99.90;;;;;;10405856;28;20231;-84
2022/11/20 17:15:09;;;;;;;118.77;59.37;;;-0.90;99.90;;;;;;10398642;28;20212;-85
2022/11/20 17:20:11;;;;;;;130.40;64.23;;;-1.00;99.90;;;;;;10394722;28;20286;-84
2022/11/20 17:25:13;;;;;;;128.13;61.70;;;-1.00;99.90;;;;;;10390344;28;20769;-85
2022/11/20 17:30:16;;;;;;;113.33;59.53;;;-1.10;99.90;;;;;;10408209;28;20227;-86
2022/11/20 17:35:19;;;;;;;117.23;59.30;;;-1.10;99.90;;;;;;10384859;28;20239;-85
2022/11/20 17:40:21;;;;;;;120.87;60.80;;;-1.00;99.90;;;;;;10421330;28;20317;-90
2022/11/20 17:45:28;;;;;;;126.13;62.40;;;-1.10;99.90;;;;;;10427418;28;20258;-85
2022/11/20 17:50:31;;;;;;;123.90;63.03;;;-1.20;99.90;;;;;;10413137;28;20231;-86
2022/11/20 17:57:51;;;;;;;142.10;63.43;;;-1.40;99.90;;;;;;10410426;28;20246;-85
2022/11/20 18:01:04;;;;;;;146.77;68.73;;;-1.60;99.90;;;;;;10389278;28;20290;-86
2022/11/20 18:06:15;;;;;;;141.83;75.30;;;-1.90;99.90;;;;;;10404764;28;20188;-83
2022/11/20 18:11:23;;;;;;;162.40;81.63;;;-2.00;99.90;;;;;;10410071;28;20215;-84
2022/11/20 18:16:27;;;;;;;179.23;82.87;;;-2.00;99.90;;;;;;10396405;28;20212;-84
2022/11/20 18:21:30;;;;;;;211.43;98.17;;;-1.90;99.90;;;;;;10376263;28;20270;-84
2022/11/20 18:26:33;;;;;;;217.70;99.73;;;-1.90;99.90;;;;;;10372690;28;20238;-85
2022/11/20 18:31:40;;;;;;;251.30;109.23;;;-1.80;99.90;;;;;;10372802;28;20212;-85
2022/11/20 18:36:44;;;;;;;236.27;107.40;;;-1.80;99.90;;;;;;10371696;28;20270;-85
2022/11/20 18:47:10;;;;;;;233.73;111.70;;;-1.50;99.90;;;;;;10373033;28;20196;-85
2022/11/20 18:52:27;;;;;;;223.57;106.13;;;-1.40;99.90;;;;;;10379201;28;20254;-85
2022/11/20 18:57:30;;;;;;;229.40;110.23;;;-1.40;99.90;;;;;;10380671;28;20208;-85
2022/11/20 19:02:32;;;;;;;200.30;98.03;;;-1.30;99.90;;;;;;10395685;28;20196;-85
2022/11/20 19:07:42;;;;;;;177.67;93.73;;;-1.30;99.90;;;;;;10394854;28;20207;-85
2022/11/20 19:12:45;;;;;;;192.63;95.83;;;-1.40;99.90;;;;;;10419402;28;20281;-84
2022/11/20 19:17:47;;;;;;;188.13;92.70;;;-1.50;99.90;;;;;;10420590;28;20241;-85
2022/11/20 19:22:50;;;;;;;184.57;90.57;;;-1.60;99.90;;;;;;10419520;28;20207;-85
2022/11/20 19:27:52;;;;;;;191.00;99.40;;;-1.40;99.90;;;;;;10418810;28;20261;-85
2022/11/20 19:32:56;;;;;;;193.10;98.20;;;-1.50;99.90;;;;;;10417159;28;20262;-85
2022/11/20 19:37:59;;;;;;;199.37;104.20;;;-1.40;99.90;;;;;;10401621;28;20224;-85
2022/11/20 19:43:06;;;;;;;194.27;97.60;;;-1.40;99.90;;;;;;10416687;28;20207;-85
2022/11/20 19:48:09;;;;;;;201.23;97.60;;;-1.30;99.90;;;;;;10416998;28;20237;-85
2022/11/20 19:53:12;;;;;;;79.63;35.97;;;-1.20;99.90;;;;;;10422168;28;20250;-86
2022/11/20 19:58:15;;;;;;;92.73;51.10;;;-1.00;99.90;;;;;;10431667;28;21744;-86
2022/11/20 20:03:17;;;;;;;99.23;50.90;;;-0.80;99.90;;;;;;10434025;28;20195;-85
2022/11/20 20:08:20;;;;;;;98.53;53.23;;;-0.80;99.90;;;;;;10440091;28;20196;-84
2022/11/20 20:13:22;;;;;;;99.10;51.90;;;-0.80;99.90;;;;;;10416118;28;20203;-84
2022/11/20 20:18:25;;;;;;;103.23;53.97;;;-0.80;99.90;;;;;;10406407;22;20259;-87
2022/11/20 20:23:27;;;;;;;107.10;55.23;;;-0.80;99.90;;;;;;10413900;28;20211;-87
2022/11/20 20:28:30;;;;;;;99.97;49.20;;;-0.80;99.90;;;;;;10372398;28;20208;-87
2022/11/20 20:33:35;;;;;;;98.43;47.27;;;-0.90;99.90;;;;;;10355209;28;20228;-87
2022/11/20 20:38:37;;;;;;;92.07;46.83;;;-0.90;99.90;;;;;;10359812;28;20258;-87
2022/11/20 20:49:02;;;;;;;96.90;48.93;;;-1.20;99.90;;;;;;10364320;28;20196;-90
2022/11/20 20:54:05;;;;;;;94.10;48.10;;;-1.60;99.90;;;;;;10356392;28;20722;-91
2022/11/20 20:59:07;;;;;;;101.53;51.17;;;-2.00;99.90;;;;;;10364740;28;20223;-92
2022/11/20 21:04:11;;;;;;;107.67;56.03;;;-2.30;99.90;;;;;;10362159;28;20269;-87
2022/11/20 21:09:13;;;;;;;108.83;57.20;;;-2.60;99.90;;;;;;10366131;28;20179;-88
2022/11/20 21:14:16;;;;;;;116.10;59.43;;;-2.80;99.90;;;;;;10394528;28;20185;-87
2022/11/20 21:19:18;;;;;;;119.37;60.90;;;-3.00;99.90;;;;;;10390062;28;20232;-88
2022/11/20 21:24:21;;;;;;;131.23;66.50;;;-3.20;99.90;;;;;;10392068;28;20175;-89
2022/11/20 21:29:25;;;;;;;120.67;65.83;;;-3.30;99.90;;;;;;10405260;28;20175;-89
2022/11/20 21:34:28;;;;;;;121.17;64.20;;;-3.50;99.90;;;;;;10382615;28;20230;-90
2022/11/20 21:39:31;;;;;;;119.73;60.13;;;-3.50;99.90;;;;;;10401811;28;20237;-87
2022/11/20 21:44:33;;;;;;;114.90;57.33;;;-3.60;99.90;;;;;;10403256;28;20182;-85
2022/11/20 21:49:38;;;;;;;109.10;57.23;;;-3.70;99.90;;;;;;10400111;28;20175;-84
2022/11/20 21:54:40;;;;;;;103.30;53.87;;;-3.70;99.90;;;;;;10390398;28;20318;-84
2022/11/20 21:59:43;;;;;;;99.93;53.97;;;-3.80;99.90;;;;;;10426031;28;20206;-85
2022/11/20 22:04:45;;;;;;;100.13;52.67;;;-3.80;99.90;;;;;;10397692;28;20183;-85
2022/11/20 22:09:48;;;;;;;107.73;53.40;;;-3.90;99.90;;;;;;10401635;28;20182;-87
2022/11/20 22:14:50;;;;;;;119.25;61.33;;;-3.90;99.90;;;;;;10402627;28;20454;-87
2022/11/20 22:19:52;;;;;;;113.40;55.93;;;-3.90;99.90;;;;;;10402558;28;20271;-89
2022/11/20 22:24:55;;;;;;;122.30;60.23;;;-4.10;99.90;;;;;;10388886;28;20264;-84
2022/11/20 22:30:06;;;;;;;119.47;61.00;;;-4.10;99.90;;;;;;10379473;28;20207;-83
2022/11/20 22:35:09;;;;;;;107.33;57.40;;;-4.20;99.90;;;;;;10367747;28;20257;-81
2022/11/20 22:40:12;;;;;;;59.03;29.07;;;-3.80;99.90;;;;;;10362952;28;20228;-82
2022/11/20 22:45:15;;;;;;;65.33;33.00;;;-3.10;99.90;;;;;;10340936;28;20222;-82
2022/11/20 22:50:17;;;;;;;57.27;28.33;;;-0.90;99.90;;;;;;10337217;28;20271;-83
2022/11/20 22:55:20;;;;;;;60.97;31.70;;;-0.20;99.90;;;;;;10335749;28;20229;-83
2022/11/20 23:00:22;;;;;;;66.93;35.70;;;0.30;99.90;;;;;;10348959;28;20283;-83
2022/11/20 23:05:24;;;;;;;55.73;29.90;;;0.20;99.90;;;;;;10347774;28;20221;-84
2022/11/20 23:10:27;;;;;;;54.97;27.23;;;0.00;99.90;;;;;;10346200;28;20686;-84
2022/11/20 23:15:31;;;;;;;56.07;28.50;;;0.90;99.90;;;;;;10344562;28;20278;-85
2022/11/20 23:20:35;;;;;;;58.73;29.90;;;1.00;99.90;;;;;;10348039;28;20279;-85
2022/11/20 23:25:38;;;;;;;56.03;29.97;;;0.70;99.90;;;;;;10351565;28;20229;-84
2022/11/20 23:30:40;;;;;;;54.70;30.37;;;0.20;99.90;;;;;;10341768;28;20302;-84
2022/11/20 23:35:46;;;;;;;53.10;29.67;;;0.20;99.90;;;;;;10344871;28;20228;-84
2022/11/20 23:40:50;;;;;;;53.23;27.00;;;0.00;99.90;;;;;;10348652;28;20244;-84
2022/11/20 23:45:58;;;;;;;52.27;29.23;;;-0.20;99.90;;;;;;10355336;28;20642;-84
2022/11/20 23:51:00;;;;;;;52.07;30.07;;;0.20;99.90;;;;;;10354372;28;20279;-84
2022/11/20 23:56:04;;;;;;;68.43;33.37;;;0.00;99.90;;;;;;10354838;28;20244;-83
